Dades meteomassalio
Diari Summary for Diciembre 15, 2017 Units:  English    Metric   Both
« Previous Day
Next Day »
Diari Semanal Mensual Anual Personalitzat
  Maxima: Minima: Mijana:
Temperatura: TemperatureC °F 4.4 °F 8.7 °F
Rosada: DewpointC °F 0.2 °F 3.6 °F
Humitat: Humidity % 57 % 71 %
Velocitat del vent: WindSpeedKMH mph 0.0 mph 23.5 mph
Racha vent: WindSpeedGustKMH mph - -
Vent:- - WNW
Pressio: PressurehPa in 1010.4 in -
Pluja: 0.3 in    
Historical Graphs
 
 
Tabular Data for Diciembre 15, 2017
Time Temperature Dew Point Pressure Wind Wind Speed Wind Gust Humidity Rainfall Rate (Hourly) solar Conditions
TemperatureC °F DewpointC °F PressurehPa in Calm     Humidity % HourlyPrecipMM in SolarRadiationWatts/m^2 W/m2 Conditions
00:04 6.7 °F 1.2 °F 1012.8 in Calm     68 % 0.0 in 0.0 W/m2 CLR
00:09 7.2 °F 1.9 °F 1012.8 in West 5.6 mph 5.6 mph 69 % 0.0 in 0.0 W/m2 CLR
00:14 7.2 °F 2.1 °F 1012.8 in WSW 5.6 mph 5.6 mph 70 % 0.0 in 0.0 W/m2 CLR
00:19 7.8 °F 2.4 °F 1012.4 in West 3.7 mph 3.7 mph 69 % 0.0 in 0.0 W/m2 CLR
00:24 7.8 °F 2.4 °F 1012.4 in Calm     69 % 0.0 in 0.0 W/m2 CLR
00:29 7.8 °F 2.7 °F 1012.4 in West 5.6 mph 5.6 mph 70 % 0.0 in 0.0 W/m2 CLR
00:34 7.8 °F 2.7 °F 1012.4 in West 9.7 mph 9.7 mph 70 % 0.0 in 0.0 W/m2 CLR
00:39 7.8 °F 2.4 °F 1012.4 in WNW 17.7 mph 17.7 mph 69 % 0.0 in 0.0 W/m2 CLR
00:44 7.8 °F 2.2 °F 1012.4 in WNW 11.3 mph 11.3 mph 68 % 0.0 in 0.0 W/m2 CLR
00:49 7.2 °F 1.5 °F 1012.4 in NW 18.5 mph 18.5 mph 67 % 0.0 in 0.0 W/m2 CLR
00:54 7.2 °F 1.3 °F 1012.1 in NW 18.5 mph 18.5 mph 66 % 0.0 in 0.0 W/m2 CLR
00:59 6.7 °F 0.8 °F 1012.1 in NW 24.1 mph 24.1 mph 66 % 0.0 in 0.0 W/m2 CLR
01:04 7.8 °F 1.6 °F 1012.1 in WNW 22.5 mph 22.5 mph 65 % 0.0 in 0.0 W/m2 CLR
01:09 8.9 °F 2.7 °F 1012.1 in WNW 18.5 mph 18.5 mph 65 % 0.0 in 0.0 W/m2 CLR
01:14 10.6 °F 4.4 °F 1012.1 in WNW 20.9 mph 20.9 mph 66 % 0.0 in 0.0 W/m2 CLR
01:19 11.7 °F 5.5 °F 1012.1 in NW 22.2 mph 22.2 mph 66 % 0.0 in 0.0 W/m2 CLR
01:24 12.2 °F 6.1 °F 1012.1 in NW 16.7 mph 16.7 mph 66 % 0.0 in 0.0 W/m2 CLR
01:29 12.2 °F 6.3 °F 1012.1 in NW 16.7 mph 16.7 mph 67 % 0.0 in 0.0 W/m2 CLR
01:34 12.2 °F 6.3 °F 1011.7 in NW 16.7 mph 16.7 mph 67 % 0.0 in 0.0 W/m2 CLR
01:39 11.7 °F 5.7 °F 1011.7 in NNW 18.5 mph 18.5 mph 67 % 0.0 in 0.0 W/m2 CLR
01:44 11.7 °F 5.9 °F 1011.7 in NW 22.2 mph 22.2 mph 68 % 0.0 in 0.0 W/m2 CLR
01:49 12.2 °F 6.3 °F 1011.7 in NW 20.4 mph 20.4 mph 67 % 0.0 in 0.0 W/m2 CLR
01:54 12.2 °F 6.5 °F 1011.7 in NW 16.7 mph 16.7 mph 68 % 0.0 in 0.0 W/m2 CLR
01:59 12.2 °F 6.5 °F 1011.7 in WNW 13.0 mph 13.0 mph 68 % 0.0 in 0.0 W/m2 CLR
02:04 12.2 °F 6.3 °F 1011.7 in WNW 4.8 mph 4.8 mph 67 % 0.0 in 0.0 W/m2 CLR
02:12 11.7 °F 5.9 °F 1011.4 in WNW 3.2 mph 3.9 mph 68 % 0.0 in 0.0 W/m2 CLR
02:17 11.1 °F 5.4 °F 1011.4 in NW 4.8 mph 4.8 mph 68 % 0.0 in 0.0 W/m2 CLR
02:22 10.6 °F 5.1 °F 1011.4 in NW 18.5 mph 18.5 mph 69 % 0.0 in 0.0 W/m2 CLR
02:27 10.0 °F 4.3 °F 1011.4 in NW 18.5 mph 18.5 mph 68 % 0.0 in 0.0 W/m2 CLR
02:33 10.6 °F 5.1 °F 1011.4 in NW 18.5 mph 18.5 mph 69 % 0.0 in 0.0 W/m2 CLR
02:38 11.1 °F 5.6 °F 1011.4 in WNW 5.6 mph 5.6 mph 69 % 0.0 in 0.0 W/m2 CLR
02:43 11.1 °F 5.4 °F 1011.4 in NW 5.6 mph 5.6 mph 68 % 0.0 in 0.0 W/m2 CLR
02:48 10.6 °F 5.1 °F 1011.4 in NW 13.0 mph 13.0 mph 69 % 0.0 in 0.0 W/m2 CLR
02:53 10.6 °F 5.1 °F 1011.4 in NW 13.0 mph 13.0 mph 69 % 0.0 in 0.0 W/m2 CLR
02:58 10.6 °F 5.3 °F 1011.4 in NW 16.7 mph 16.7 mph 70 % 0.0 in 0.0 W/m2 CLR
03:03 11.7 °F 6.2 °F 1011.7 in North 18.5 mph 18.5 mph 69 % 0.0 in 0.0 W/m2 CLR
03:08 12.8 °F 7.2 °F 1011.7 in NNE 20.4 mph 20.4 mph 69 % 0.0 in 0.0 W/m2 CLR
03:13 13.3 °F 8.0 °F 1012.1 in NNE 29.0 mph 29.0 mph 70 % 0.0 in 0.0 W/m2 CLR
03:18 13.3 °F 8.4 °F 1012.1 in North 27.8 mph 27.8 mph 72 % 0.0 in 0.0 W/m2 CLR
03:23 12.8 °F 8.8 °F 1012.4 in North 24.1 mph 24.1 mph 77 % 0.3 in 0.0 W/m2 RA
03:28 12.2 °F 8.7 °F 1012.4 in North 29.6 mph 29.6 mph 79 % 0.3 in 0.0 W/m2
03:33 11.7 °F 8.5 °F 1012.4 in NNW 24.1 mph 24.1 mph 81 % 0.3 in 0.0 W/m2 CLR
03:38 11.7 °F 8.9 °F 1012.4 in North 20.4 mph 20.4 mph 83 % 0.3 in 0.0 W/m2 CLR
03:43 11.7 °F 9.1 °F 1012.4 in NW 19.3 mph 19.3 mph 84 % 0.3 in 0.0 W/m2 CLR
03:48 11.1 °F 8.5 °F 1012.4 in North 27.8 mph 27.8 mph 84 % 0.3 in 0.0 W/m2 CLR
03:54 11.1 °F 8.7 °F 1012.4 in North 31.5 mph 31.5 mph 85 % 0.3 in 0.0 W/m2 CLR
03:59 11.1 °F 8.8 °F 1012.4 in NNW 20.4 mph 20.4 mph 86 % 0.3 in 0.0 W/m2 CLR
04:04 11.1 °F 8.8 °F 1012.1 in NNW 22.2 mph 22.2 mph 86 % 0.3 in 0.0 W/m2 CLR
04:09 11.1 °F 8.8 °F 1012.1 in NNW 25.9 mph 25.9 mph 86 % 0.3 in 0.0 W/m2 CLR
04:13 10.6 °F 8.3 °F 1012.1 in NW 27.8 mph 27.8 mph 86 % 0.3 in 0.0 W/m2 CLR
04:19 10.6 °F 8.3 °F 1012.1 in NW 19.3 mph 19.3 mph 86 % 0.3 in 0.0 W/m2 CLR
04:24 10.6 °F 8.3 °F 1012.1 in NW 16.7 mph 16.7 mph 86 % 0.0 in 0.0 W/m2 CLR
04:29 10.6 °F 8.5 °F 1011.7 in NW 20.9 mph 20.9 mph 87 % 0.0 in 0.0 W/m2 CLR
04:34 10.6 °F 8.5 °F 1011.7 in NNW 14.8 mph 14.8 mph 87 % 0.0 in 0.0 W/m2 CLR
04:39 10.6 °F 8.5 °F 1011.7 in NNW 14.8 mph 14.8 mph 87 % 0.0 in 0.0 W/m2 CLR
04:44 10.0 °F 7.9 °F 1011.7 in WNW 12.9 mph 12.9 mph 87 % 0.0 in 0.0 W/m2 CLR
04:49 10.0 °F 7.9 °F 1011.7 in NNW 14.8 mph 14.8 mph 87 % 0.0 in 0.0 W/m2 CLR
04:54 10.0 °F 7.9 °F 1011.7 in NW 11.1 mph 11.1 mph 87 % 0.0 in 0.0 W/m2 CLR
04:59 9.4 °F 7.4 °F 1011.4 in North 14.8 mph 14.8 mph 87 % 0.0 in 0.0 W/m2 CLR
05:04 9.4 °F 7.6 °F 1011.4 in NNW 14.5 mph 14.5 mph 88 % 0.0 in 0.0 W/m2 CLR
05:09 9.4 °F 7.6 °F 1011.1 in NW 17.7 mph 17.7 mph 88 % 0.0 in 0.0 W/m2 CLR
05:14 9.4 °F 7.6 °F 1011.1 in WNW 16.7 mph 16.7 mph 88 % 0.0 in 0.0 W/m2 CLR
05:19 9.4 °F 7.6 °F 1011.1 in NW 18.5 mph 18.5 mph 88 % 0.0 in 0.0 W/m2 CLR
05:24 9.4 °F 7.4 °F 1011.1 in WNW 16.7 mph 16.7 mph 87 % 0.0 in 0.0 W/m2 CLR
05:29 9.4 °F 7.4 °F 1010.7 in WNW 11.1 mph 11.1 mph 87 % 0.0 in 0.0 W/m2 CLR
05:34 8.9 °F 6.8 °F 1010.7 in WNW 14.8 mph 14.8 mph 87 % 0.0 in 0.0 W/m2 CLR
05:39 8.9 °F 6.8 °F 1010.7 in WNW 16.1 mph 16.1 mph 87 % 0.0 in 0.0 W/m2 CLR
05:44 8.9 °F 6.8 °F 1010.7 in West 18.5 mph 18.5 mph 87 % 0.0 in 0.0 W/m2 CLR
05:49 9.4 °F 7.4 °F 1010.7 in WNW 18.5 mph 18.5 mph 87 % 0.0 in 0.0 W/m2 CLR
05:54 8.9 °F 6.8 °F 1010.7 in WNW 18.5 mph 18.5 mph 87 % 0.0 in 0.0 W/m2 CLR
05:58 8.9 °F 6.8 °F 1010.7 in WNW 22.2 mph 22.2 mph 87 % 0.0 in 0.0 W/m2 CLR
06:03 8.9 °F 6.8 °F 1010.4 in WNW 18.5 mph 18.5 mph 87 % 0.0 in 0.0 W/m2 CLR
06:08 8.9 °F 6.8 °F 1010.4 in WNW 18.5 mph 18.5 mph 87 % 0.0 in 0.0 W/m2 CLR
06:13 8.9 °F 6.8 °F 1010.4 in WNW 18.5 mph 18.5 mph 87 % 0.0 in 0.0 W/m2 CLR
06:18 8.3 °F 6.3 °F 1010.4 in WNW 13.0 mph 13.0 mph 87 % 0.0 in 0.0 W/m2 CLR
06:23 8.3 °F 6.3 °F 1010.4 in WNW 14.8 mph 14.8 mph 87 % 0.0 in 0.0 W/m2 CLR
06:28 7.8 °F 5.7 °F 1010.4 in WNW 7.4 mph   87 % 0.0 in 0.0 W/m2 CLR
06:33 7.8 °F 5.7 °F 1010.4 in NW 7.4 mph 7.4 mph 87 % 0.0 in 0.0 W/m2 CLR
06:38 7.8 °F 5.7 °F 1010.4 in Calm     87 % 0.0 in 0.0 W/m2 CLR
06:43 7.2 °F 5.2 °F 1010.4 in Calm     87 % 0.0 in 0.0 W/m2 CLR
06:46 6.7 °F 4.7 °F 1010.4 in Calm     87 % 0.0 in 0.0 W/m2 CLR
06:51 6.1 °F 4.1 °F 1010.4 in Calm     87 % 0.0 in 0.0 W/m2 CLR
06:56 5.6 °F 3.4 °F 1010.7 in Calm     86 % 0.0 in 0.0 W/m2 CLR
07:02 5.0 °F 3.0 °F 1010.7 in Calm     87 % 0.0 in 0.0 W/m2 CLR
07:07 5.0 °F 2.8 °F 1010.7 in Calm     86 % 0.0 in 0.0 W/m2 CLR
07:12 4.4 °F 2.4 °F 1010.7 in Calm     87 % 0.0 in 0.0 W/m2 CLR
07:17 4.4 °F 2.3 °F 1011.1 in Calm     86 % 0.0 in 0.0 W/m2 CLR
07:22 4.4 °F 2.3 °F 1011.1 in Calm     86 % 0.0 in 0.0 W/m2 CLR
07:27 4.4 °F 2.3 °F 1011.1 in Calm     86 % 0.0 in 0.0 W/m2 CLR
07:32 5.0 °F 2.8 °F 1011.1 in NNW 14.8 mph 14.8 mph 86 % 0.0 in 0.0 W/m2 CLR
07:37 5.0 °F 2.8 °F 1011.1 in NW 14.8 mph 14.8 mph 86 % 0.0 in 0.0 W/m2 CLR
07:42 5.6 °F 3.4 °F 1011.1 in NW 13.0 mph 13.0 mph 86 % 0.0 in 0.0 W/m2 CLR
07:47 5.6 °F 3.4 °F 1011.1 in NW 13.0 mph 13.0 mph 86 % 0.0 in 0.0 W/m2 CLR
07:52 5.6 °F 3.2 °F 1011.1 in NW 13.0 mph 13.0 mph 85 % 0.0 in 0.0 W/m2 CLR
07:57 6.1 °F 3.8 °F 1011.1 in NNW 11.1 mph 11.1 mph 85 % 0.0 in 0.0 W/m2 CLR
08:02 6.1 °F 3.9 °F 1011.4 in NW 9.3 mph 9.3 mph 86 % 0.0 in 0.0 W/m2 CLR
08:07 6.7 °F 4.5 °F 1011.4 in NNW 16.7 mph 16.7 mph 86 % 0.0 in 0.0 W/m2 OVC
08:12 7.2 °F 4.9 °F 1011.4 in NW 13.0 mph 13.0 mph 85 % 0.0 in 0.0 W/m2 OVC
08:17 7.2 °F 4.7 °F 1011.4 in NNW 16.7 mph 16.7 mph 84 % 0.0 in 0.0 W/m2 OVC
08:22 7.8 °F 5.1 °F 1011.4 in NNW 20.4 mph 20.4 mph 83 % 0.0 in 5.0 W/m2 OVC
08:27 7.8 °F 4.9 °F 1011.4 in WNW 27.8 mph 27.8 mph 82 % 0.0 in 7.0 W/m2 BKN
08:32 8.3 °F 5.1 °F 1011.4 in NW 25.9 mph 25.9 mph 80 % 0.0 in 11.0 W/m2 BKN
08:37 8.9 °F 5.1 °F 1011.7 in NNW 31.5 mph 31.5 mph 77 % 0.0 in 12.0 W/m2 BKN
08:42 8.9 °F 4.9 °F 1011.7 in NW 33.3 mph 33.3 mph 76 % 0.0 in 16.0 W/m2 BKN
08:47 8.9 °F 4.7 °F 1011.7 in NNW 29.6 mph 29.6 mph 75 % 0.0 in 19.0 W/m2 BKN
08:52 8.9 °F 4.7 °F 1011.7 in NW 24.1 mph 24.1 mph 75 % 0.0 in 28.0 W/m2 BKN
08:57 8.9 °F 4.7 °F 1011.7 in NW 29.6 mph 29.6 mph 75 % 0.0 in 37.0 W/m2 BKN
09:02 8.9 °F 4.5 °F 1011.7 in NW 20.9 mph 20.9 mph 74 % 0.0 in 47.0 W/m2 SCT
09:07 8.9 °F 4.5 °F 1011.7 in NNW 18.5 mph 18.5 mph 74 % 0.0 in 56.0 W/m2 SCT
09:12 8.9 °F 4.3 °F 1011.7 in NNW 18.5 mph 18.5 mph 73 % 0.0 in 60.0 W/m2 SCT
09:17 8.9 °F 4.3 °F 1011.7 in NNW 14.5 mph 14.5 mph 73 % 0.0 in 77.0 W/m2 FEW
09:22 8.9 °F 4.1 °F 1012.1 in NW 18.5 mph 18.5 mph 72 % 0.0 in 90.0 W/m2 FEW
09:27 9.4 °F 4.4 °F 1012.1 in NW 18.5 mph 18.5 mph 71 % 0.0 in 84.0 W/m2 CLR
09:32 9.4 °F 4.2 °F 1012.1 in NW 18.5 mph 18.5 mph 70 % 0.0 in 118.0 W/m2 CLR
09:37 9.4 °F 4.2 °F 1012.1 in NW 18.5 mph 18.5 mph 70 % 0.0 in 134.0 W/m2 CLR
09:42 9.4 °F 4.1 °F 1012.1 in NW 18.5 mph 18.5 mph 69 % 0.0 in 132.0 W/m2 CLR
09:47 9.4 °F 4.1 °F 1012.1 in NW 18.5 mph 18.5 mph 69 % 0.0 in 156.0 W/m2 CLR
09:52 10.0 °F 4.6 °F 1012.1 in NW 22.2 mph 22.2 mph 69 % 0.0 in 171.0 W/m2 CLR
09:57 10.0 °F 4.2 °F 1012.1 in NNW 22.2 mph 22.2 mph 67 % 0.0 in 127.0 W/m2 CLR
10:02 10.0 °F 4.2 °F 1012.1 in NW 20.4 mph 20.4 mph 67 % 0.0 in 130.0 W/m2 CLR
10:07 10.6 °F 4.7 °F 1012.4 in NNW 20.4 mph 20.4 mph 67 % 0.0 in 192.0 W/m2 CLR
10:12 10.6 °F 4.7 °F 1012.4 in NNW 24.1 mph 24.1 mph 67 % 0.0 in 211.0 W/m2 CLR
10:17 10.6 °F 4.4 °F 1012.4 in NNW 24.1 mph 24.1 mph 66 % 0.0 in 237.0 W/m2 CLR
10:22 10.6 °F 4.2 °F 1012.4 in NNW 35.2 mph 35.2 mph 65 % 0.0 in 250.0 W/m2 CLR
10:27 10.6 °F 4.2 °F 1012.4 in NNW 38.9 mph 38.9 mph 65 % 0.0 in 262.0 W/m2 CLR
10:32 10.6 °F 4.2 °F 1012.4 in NNW 27.8 mph 27.8 mph 65 % 0.0 in 276.0 W/m2 CLR
10:37 10.6 °F 4.2 °F 1012.8 in North 31.5 mph 31.5 mph 65 % 0.0 in 304.0 W/m2 CLR
10:42 11.1 °F 5.0 °F 1012.8 in North 31.5 mph 31.5 mph 66 % 0.0 in 332.0 W/m2 CLR
10:47 10.6 °F 4.4 °F 1013.1 in NNE 29.0 mph 29.0 mph 66 % 0.0 in 364.0 W/m2 CLR
10:52 10.6 °F 4.7 °F 1013.1 in North 37.0 mph 37.0 mph 67 % 0.0 in 388.0 W/m2 CLR
10:57 10.6 °F 4.4 °F 1013.1 in North 38.9 mph 38.9 mph 66 % 0.0 in 197.0 W/m2 CLR
11:02 10.6 °F 4.7 °F 1013.1 in North 31.5 mph 31.5 mph 67 % 0.0 in 185.0 W/m2 CLR
11:07 10.6 °F 4.9 °F 1013.1 in North 35.2 mph 35.2 mph 68 % 0.0 in 230.0 W/m2 CLR
11:13 10.6 °F 4.9 °F 1013.1 in North 31.5 mph 31.5 mph 68 % 0.0 in 499.0 W/m2 CLR
11:18 11.1 °F 5.0 °F 1013.1 in North 42.6 mph 42.6 mph 66 % 0.0 in 221.0 W/m2 CLR
11:23 10.6 °F 4.4 °F 1013.1 in North 37.0 mph 37.0 mph 66 % 0.0 in 320.0 W/m2 CLR
11:28 11.1 °F 5.2 °F 1013.1 in NNW 25.9 mph 25.9 mph 67 % 0.0 in 236.0 W/m2 CLR
11:33 10.6 °F 4.4 °F 1013.1 in NNW 29.6 mph 29.6 mph 66 % 0.0 in 111.0 W/m2 CLR
11:38 10.0 °F 4.2 °F 1013.1 in North 37.0 mph 37.0 mph 67 % 0.0 in 214.0 W/m2 CLR
11:43 10.6 °F 4.7 °F 1013.1 in North 37.0 mph 37.0 mph 67 % 0.0 in 104.0 W/m2 CLR
11:48 10.0 °F 4.3 °F 1013.1 in North 37.0 mph 37.0 mph 68 % 0.0 in 86.0 W/m2 CLR
11:53 10.0 °F 4.6 °F 1013.1 in North 33.3 mph 33.3 mph 69 % 0.0 in 90.0 W/m2 CLR
11:58 9.4 °F 4.1 °F 1013.1 in North 31.5 mph 31.5 mph 69 % 0.0 in 272.0 W/m2 CLR
12:03 9.4 °F 4.2 °F 1013.1 in NNE 31.5 mph 31.5 mph 70 % 0.0 in 156.0 W/m2 CLR
12:08 9.4 °F 4.2 °F 1013.1 in North 43.4 mph 43.4 mph 70 % 0.0 in 190.0 W/m2 CLR
12:13 10.0 °F 4.8 °F 1013.1 in NNW 31.5 mph 31.5 mph 70 % 0.0 in 204.0 W/m2 CLR
12:18 10.0 °F 5.0 °F 1013.1 in North 35.2 mph 35.2 mph 71 % 0.0 in 207.0 W/m2 CLR
12:23 10.0 °F 4.8 °F 1013.1 in NNW 40.7 mph 40.7 mph 70 % 0.0 in 253.0 W/m2 CLR
12:28 10.6 °F 5.5 °F 1013.1 in NNW 31.5 mph 31.5 mph 71 % 0.0 in 629.0 W/m2 CLR
12:33 10.6 °F 5.1 °F 1012.8 in North 37.0 mph 37.0 mph 69 % 0.0 in 197.0 W/m2 CLR
12:38 10.6 °F 5.1 °F 1012.8 in North 25.9 mph 25.9 mph 69 % 0.0 in 156.0 W/m2 CLR
12:43 10.0 °F 4.6 °F 1012.8 in NNW 27.8 mph 27.8 mph 69 % 0.0 in 156.0 W/m2 CLR
12:48 10.0 °F 4.3 °F 1012.8 in NNW 35.2 mph 35.2 mph 68 % 0.0 in 125.0 W/m2 CLR
12:53 10.0 °F 4.3 °F 1012.8 in North 37.0 mph 37.0 mph 68 % 0.0 in 104.0 W/m2 CLR
12:58 10.0 °F 4.2 °F 1012.8 in North 31.5 mph 31.5 mph 67 % 0.0 in 95.0 W/m2 CLR
13:03 9.4 °F 3.4 °F 1012.4 in NNW 33.3 mph 33.3 mph 66 % 0.0 in 113.0 W/m2 CLR
13:08 10.0 °F 4.2 °F 1012.4 in NW 24.1 mph 24.1 mph 67 % 0.0 in 141.0 W/m2 CLR
13:13 10.0 °F 3.5 °F 1012.4 in NNW 40.7 mph 40.7 mph 64 % 0.0 in 146.0 W/m2 CLR
13:18 10.0 °F 3.7 °F 1012.1 in NNW 33.3 mph 33.3 mph 65 % 0.0 in 148.0 W/m2 CLR
13:23 10.0 °F 3.7 °F 1012.1 in NW 25.9 mph 25.9 mph 65 % 0.0 in 171.0 W/m2 CLR
13:28 10.0 °F 3.7 °F 1011.7 in NNW 24.1 mph 24.1 mph 65 % 0.0 in 188.0 W/m2 CLR
13:33 10.6 °F 4.0 °F 1011.7 in NW 29.6 mph 29.6 mph 64 % 0.0 in 267.0 W/m2 CLR
13:38 10.6 °F 3.6 °F 1011.7 in NNW 27.8 mph 27.8 mph 62 % 0.0 in 443.0 W/m2 CLR
13:43 10.6 °F 3.6 °F 1011.7 in North 33.8 mph 33.8 mph 62 % 0.0 in 163.0 W/m2 CLR
13:48 10.6 °F 3.1 °F 1011.7 in NNW 37.0 mph 37.0 mph 60 % 0.0 in 218.0 W/m2 CLR
13:53 10.6 °F 3.1 °F 1011.7 in NW 29.0 mph 29.0 mph 60 % 0.0 in 227.0 W/m2 CLR
13:58 10.6 °F 2.9 °F 1011.7 in NNW 35.2 mph 35.2 mph 59 % 0.0 in 197.0 W/m2 CLR
14:03 10.6 °F 2.9 °F 1011.7 in NW 31.5 mph 31.5 mph 59 % 0.0 in 207.0 W/m2 CLR
14:08 10.6 °F 2.9 °F 1011.7 in NNW 38.9 mph 38.9 mph 59 % 0.0 in 220.0 W/m2 CLR
14:14 10.6 °F 2.6 °F 1011.7 in NNW 55.5 mph 55.5 mph 58 % 0.0 in 207.0 W/m2 CLR
14:19 10.6 °F 2.4 °F 1011.7 in NNW 41.8 mph 41.8 mph 57 % 0.0 in 181.0 W/m2 CLR
14:24 10.6 °F 2.6 °F 1011.7 in NW 41.8 mph 41.8 mph 58 % 0.0 in 148.0 W/m2 CLR
14:29 10.0 °F 2.3 °F 1011.7 in NNW 42.6 mph 42.6 mph 59 % 0.0 in 125.0 W/m2 CLR
14:34 10.0 °F 2.8 °F 1011.7 in NNW 40.7 mph 40.7 mph 61 % 0.0 in 121.0 W/m2 CLR
14:39 9.4 °F 2.7 °F 1011.7 in NNW 40.2 mph 40.2 mph 63 % 0.0 in 120.0 W/m2 CLR
14:44 9.4 °F 2.7 °F 1011.7 in NNW 43.4 mph 43.4 mph 63 % 0.0 in 114.0 W/m2 CLR
14:49 9.4 °F 2.7 °F 1011.7 in NW 33.8 mph 33.8 mph 63 % 0.0 in 118.0 W/m2 CLR
14:54 9.4 °F 2.9 °F 1011.7 in NNW 29.6 mph 29.6 mph 64 % 0.0 in 109.0 W/m2 CLR
14:59 9.4 °F 2.9 °F 1011.7 in NNW 37.0 mph 37.0 mph 64 % 0.0 in 111.0 W/m2 CLR
15:04 9.4 °F 2.9 °F 1011.7 in NW 29.6 mph 29.6 mph 64 % 0.0 in 113.0 W/m2 CLR
15:09 9.4 °F 2.9 °F 1011.7 in NNW 37.0 mph 37.0 mph 64 % 0.0 in 123.0 W/m2 CLR
15:14 9.4 °F 2.7 °F 1011.7 in NNW 35.2 mph 35.2 mph 63 % 0.0 in 97.0 W/m2 CLR
15:19 9.4 °F 2.9 °F 1011.7 in NNW 25.9 mph 25.9 mph 64 % 0.0 in 276.0 W/m2 CLR
15:24 10.0 °F 3.1 °F 1011.7 in NW 35.2 mph 35.2 mph 62 % 0.0 in 267.0 W/m2 CLR
15:29 10.0 °F 3.1 °F 1011.7 in NNW 27.8 mph 27.8 mph 62 % 0.0 in 262.0 W/m2 CLR
15:34 10.6 °F 3.3 °F 1011.7 in NW 38.9 mph 38.9 mph 61 % 0.0 in 227.0 W/m2 CLR
15:39 10.6 °F 3.3 °F 1011.7 in NNW 33.3 mph 33.3 mph 61 % 0.0 in 239.0 W/m2 CLR
15:44 10.6 °F 2.9 °F 1011.7 in NNW 42.6 mph 42.6 mph 59 % 0.0 in 214.0 W/m2 CLR
15:49 10.0 °F 2.1 °F 1012.1 in North 42.6 mph 42.6 mph 58 % 0.0 in 47.0 W/m2 CLR
15:54 9.4 °F 1.8 °F 1012.1 in North 46.3 mph 46.3 mph 59 % 0.0 in 121.0 W/m2 FEW
15:59 9.4 °F 2.1 °F 1012.1 in NNW 38.9 mph 38.9 mph 60 % 0.0 in 109.0 W/m2 FEW
16:04 9.4 °F 2.3 °F 1012.1 in North 38.6 mph 38.6 mph 61 % 0.0 in 97.0 W/m2 CLR
16:09 9.4 °F 2.3 °F 1012.1 in NNW 38.9 mph 38.9 mph 61 % 0.0 in 90.0 W/m2 CLR
16:19 9.4 °F 2.5 °F 1012.1 in North 31.5 mph 31.5 mph 62 % 0.0 in 114.0 W/m2 CLR
16:24 9.4 °F 2.5 °F 1012.1 in NNW 37.0 mph 37.0 mph 62 % 0.0 in 72.0 W/m2 CLR
16:30 8.9 °F 2.2 °F 1012.1 in NNW 32.2 mph 32.2 mph 63 % 0.0 in 49.0 W/m2 FEW
16:35 8.9 °F 2.2 °F 1012.1 in North 31.5 mph 31.5 mph 63 % 0.0 in 69.0 W/m2 FEW
16:40 8.9 °F 2.4 °F 1012.4 in North 37.0 mph 37.0 mph 64 % 0.0 in 39.0 W/m2 BKN
16:45 8.9 °F 2.4 °F 1012.4 in North 31.5 mph 31.5 mph 64 % 0.0 in 33.0 W/m2 BKN
16:50 8.9 °F 2.4 °F 1012.4 in NNW 38.9 mph 38.9 mph 64 % 0.0 in 23.0 W/m2 BKN
16:55 8.9 °F 2.4 °F 1012.4 in NNW 35.2 mph 35.2 mph 64 % 0.0 in 18.0 W/m2 BKN
17:00 8.9 °F 2.4 °F 1012.4 in NNW 41.8 mph 41.8 mph 64 % 0.0 in 14.0 W/m2 BKN
17:05 8.9 °F 2.7 °F 1012.4 in NNW 35.2 mph 35.2 mph 65 % 0.0 in 12.0 W/m2 BKN
17:10 8.9 °F 2.7 °F 1012.8 in North 35.4 mph 35.4 mph 65 % 0.0 in 12.0 W/m2 BKN
17:14 8.3 °F 2.1 °F 1012.4 in North 29.6 mph 29.6 mph 65 % 0.0 in 11.0 W/m2 BKN
17:19 8.3 °F 2.1 °F 1012.8 in North 30.6 mph 30.6 mph 65 % 0.0 in 9.0 W/m2 BKN
17:20 8.3 °F 2.1 °F 1012.8 in NNW 29.0 mph 29.0 mph 65 % 0.0 in 9.0 W/m2 BKN
17:25 8.3 °F 2.1 °F 1012.8 in North 31.5 mph 31.5 mph 65 % 0.0 in 7.0 W/m2 BKN
17:30 8.3 °F 2.1 °F 1012.8 in NNW 27.8 mph 27.8 mph 65 % 0.0 in 0.0 W/m2 OVC
17:35 8.3 °F 2.1 °F 1012.8 in North 22.2 mph 22.2 mph 65 % 0.0 in 0.0 W/m2 OVC
17:40 7.8 °F 1.6 °F 1012.8 in NNW 24.1 mph 24.1 mph 65 % 0.0 in 0.0 W/m2 OVC
17:45 7.8 °F 1.8 °F 1012.8 in NW 20.9 mph 20.9 mph 66 % 0.0 in 0.0 W/m2 CLR
17:47 7.8 °F 1.8 °F 1012.8 in NNW 16.7 mph 16.7 mph 66 % 0.0 in 0.0 W/m2 CLR
17:50 7.8 °F 1.8 °F 1012.8 in NNW 18.5 mph 18.5 mph 66 % 0.0 in 0.0 W/m2 CLR
17:55 7.8 °F 1.8 °F 1012.8 in NNW 13.0 mph 13.0 mph 66 % 0.0 in 0.0 W/m2 CLR
18:00 7.8 °F 2.1 °F 1013.1 in NNW 16.1 mph 16.1 mph 67 % 0.0 in 0.0 W/m2 CLR
18:05 7.2 °F 1.5 °F 1013.1 in NNW 18.5 mph 18.5 mph 67 % 0.0 in 0.0 W/m2 CLR
18:10 7.2 °F 1.3 °F 1013.1 in NW 22.2 mph 22.2 mph 66 % 0.0 in 0.0 W/m2 CLR
18:15 7.2 °F 1.3 °F 1013.1 in NW 14.8 mph 14.8 mph 66 % 0.0 in 0.0 W/m2 CLR
18:20 7.2 °F 1.3 °F 1013.1 in NNW 19.3 mph 19.3 mph 66 % 0.0 in 0.0 W/m2 CLR
18:25 7.2 °F 1.3 °F 1013.4 in North 25.7 mph 25.7 mph 66 % 0.0 in 0.0 W/m2 CLR
18:30 7.2 °F 1.1 °F 1013.4 in North 25.9 mph 25.9 mph 65 % 0.0 in 0.0 W/m2 CLR
18:35 7.8 °F 1.6 °F 1013.4 in North 25.7 mph 25.7 mph 65 % 0.0 in 0.0 W/m2 CLR
18:40 7.8 °F 1.6 °F 1013.4 in North 18.5 mph 18.5 mph 65 % 0.0 in 0.0 W/m2 CLR
18:45 7.8 °F 1.6 °F 1013.4 in NNW 24.1 mph 24.1 mph 65 % 0.0 in 0.0 W/m2 CLR
18:50 7.8 °F 1.6 °F 1013.4 in NNW 18.5 mph 18.5 mph 65 % 0.0 in 0.0 W/m2 CLR
18:55 7.2 °F 1.1 °F 1013.4 in NNW 20.4 mph 20.4 mph 65 % 0.0 in 0.0 W/m2 CLR
19:00 7.2 °F 1.3 °F 1013.4 in NNW 16.7 mph 16.7 mph 66 % 0.0 in 0.0 W/m2 CLR
19:05 7.2 °F 1.3 °F 1013.8 in NNW 25.9 mph 25.9 mph 66 % 0.0 in 0.0 W/m2 CLR
19:10 7.2 °F 1.3 °F 1013.4 in NNW 24.1 mph 24.1 mph 66 % 0.0 in 0.0 W/m2 CLR
19:15 7.2 °F 1.3 °F 1013.8 in NW 27.8 mph 27.8 mph 66 % 0.0 in 0.0 W/m2 CLR
19:20 7.2 °F 1.3 °F 1013.8 in WNW 18.5 mph 18.5 mph 66 % 0.0 in 0.0 W/m2 CLR
19:25 7.2 °F 1.3 °F 1013.8 in NW 18.5 mph 18.5 mph 66 % 0.0 in 0.0 W/m2 CLR
19:30 7.2 °F 1.3 °F 1013.8 in NW 22.2 mph 22.2 mph 66 % 0.0 in 0.0 W/m2 CLR
19:35 7.2 °F 1.5 °F 1013.8 in WNW 24.1 mph 24.1 mph 67 % 0.0 in 0.0 W/m2 CLR
19:40 7.2 °F 1.5 °F 1013.8 in WNW 16.1 mph 16.1 mph 67 % 0.0 in 0.0 W/m2 CLR
19:46 6.7 °F 0.9 °F 1013.8 in WNW 16.7 mph 16.7 mph 67 % 0.0 in 0.0 W/m2 CLR
19:51 6.7 °F 0.9 °F 1013.8 in NW 18.5 mph 18.5 mph 67 % 0.0 in 0.0 W/m2 CLR
19:56 6.7 °F 0.9 °F 1014.1 in NNW 18.5 mph 18.5 mph 67 % 0.0 in 0.0 W/m2 CLR
20:01 6.7 °F 0.9 °F 1014.1 in North 20.4 mph 20.4 mph 67 % 0.0 in 0.0 W/m2 CLR
20:06 6.7 °F 0.9 °F 1014.1 in WNW 22.2 mph 22.2 mph 67 % 0.0 in 0.0 W/m2 CLR
20:11 6.7 °F 0.8 °F 1014.4 in NW 25.9 mph 25.9 mph 66 % 0.0 in 0.0 W/m2 CLR
20:16 6.7 °F 0.8 °F 1014.4 in NW 20.4 mph 20.4 mph 66 % 0.0 in 0.0 W/m2 CLR
20:21 6.7 °F 0.8 °F 1014.4 in NNW 14.8 mph 14.8 mph 66 % 0.0 in 0.0 W/m2 CLR
20:24 6.7 °F 0.9 °F 1014.8 in NNW 16.7 mph 16.7 mph 67 % 0.0 in 0.0 W/m2 CLR
20:29 6.7 °F 0.9 °F 1014.8 in NNW 16.7 mph 16.7 mph 67 % 0.0 in 0.0 W/m2 CLR
20:35 6.7 °F 0.9 °F 1014.8 in NNW 22.5 mph 22.5 mph 67 % 0.0 in 0.0 W/m2 CLR
20:40 6.1 °F 0.4 °F 1014.8 in NW 18.5 mph 18.5 mph 67 % 0.0 in 0.0 W/m2 CLR
20:45 6.1 °F 0.4 °F 1014.8 in NW 14.8 mph 14.8 mph 67 % 0.0 in 0.0 W/m2 CLR
20:50 6.1 °F 0.4 °F 1015.1 in NW 17.7 mph 17.7 mph 67 % 0.0 in 0.0 W/m2 CLR
20:55 6.1 °F 0.4 °F 1015.1 in NW 20.4 mph 20.4 mph 67 % 0.0 in 0.0 W/m2 CLR
21:00 6.1 °F 0.2 °F 1015.1 in NW 19.3 mph 19.3 mph 66 % 0.0 in 0.0 W/m2 CLR
21:05 6.1 °F 0.2 °F 1015.1 in NW 20.4 mph 20.4 mph 66 % 0.0 in 0.0 W/m2 CLR
21:10 6.1 °F 0.4 °F 1015.1 in NW 14.8 mph 14.8 mph 67 % 0.0 in 0.0 W/m2 CLR
21:15 6.1 °F 0.4 °F 1015.1 in NW 20.4 mph 20.4 mph 67 % 0.0 in 0.0 W/m2 CLR
21:20 6.1 °F 0.4 °F 1015.1 in NNW 22.2 mph 22.2 mph 67 % 0.0 in 0.0 W/m2 CLR
21:25 6.1 °F 0.4 °F 1015.5 in NW 18.5 mph 18.5 mph 67 % 0.0 in 0.0 W/m2 CLR
21:30 6.7 °F 0.9 °F 1015.5 in NW 22.2 mph 22.2 mph 67 % 0.0 in 0.0 W/m2 CLR
21:35 6.1 °F 0.7 °F 1015.5 in NW 24.1 mph 24.1 mph 68 % 0.0 in 0.0 W/m2 CLR
21:40 6.7 °F 1.2 °F 1015.1 in NW 22.2 mph 24.0 mph 68 % 0.0 in 0.0 W/m2 CLR
21:45 6.1 °F 0.7 °F 1015.1 in NW 27.8 mph 27.8 mph 68 % 0.0 in 0.0 W/m2 CLR
21:50 6.1 °F 0.7 °F 1015.1 in NW 31.5 mph 31.5 mph 68 % 0.0 in 0.0 W/m2 CLR
21:55 6.7 °F 1.2 °F 1015.5 in NW 24.1 mph 24.1 mph 68 % 0.0 in 0.0 W/m2 CLR
22:00 6.7 °F 1.4 °F 1015.5 in NW 38.9 mph 38.9 mph 69 % 0.0 in 0.0 W/m2 CLR
22:05 6.7 °F 1.4 °F 1015.1 in NNW 29.6 mph 29.6 mph 69 % 0.0 in 0.0 W/m2 CLR
22:10 6.7 °F 1.4 °F 1015.5 in NW 33.3 mph 33.3 mph 69 % 0.0 in 0.0 W/m2 CLR
22:15 6.7 °F 1.4 °F 1015.5 in NNW 31.5 mph 31.5 mph 69 % 0.0 in 0.0 W/m2 CLR
22:20 6.7 °F 1.4 °F 1015.5 in NW 29.6 mph 29.6 mph 69 % 0.0 in 0.0 W/m2 CLR
22:25 6.1 °F 0.8 °F 1015.1 in NW 31.5 mph 31.5 mph 69 % 0.0 in 0.0 W/m2 CLR
22:30 6.7 °F 1.4 °F 1015.5 in NNW 27.8 mph 27.8 mph 69 % 0.0 in 0.0 W/m2 CLR
22:35 6.7 °F 1.6 °F 1015.5 in NW 29.6 mph 29.6 mph 70 % 0.0 in 0.0 W/m2 CLR
22:40 6.7 °F 1.6 °F 1015.5 in NW 25.9 mph 25.9 mph 70 % 0.0 in 0.0 W/m2 CLR
22:45 6.7 °F 1.6 °F 1015.5 in NW 31.5 mph 31.5 mph 70 % 0.0 in 0.0 W/m2 CLR
22:50 6.7 °F 1.8 °F 1015.8 in NNW 27.8 mph 27.8 mph 71 % 0.0 in 0.0 W/m2 CLR
22:55 6.7 °F 1.8 °F 1015.8 in NW 22.5 mph 22.5 mph 71 % 0.0 in 0.0 W/m2 CLR
23:00 6.7 °F 1.8 °F 1015.8 in NW 25.9 mph 25.9 mph 71 % 0.0 in 0.0 W/m2 CLR
23:05 6.7 °F 2.0 °F 1015.8 in NW 22.2 mph 22.2 mph 72 % 0.0 in 0.0 W/m2 CLR
23:09 6.1 °F 1.4 °F 1015.8 in North 25.9 mph 25.9 mph 72 % 0.0 in 0.0 W/m2 CLR
23:14 6.1 °F 1.4 °F 1016.1 in North 24.1 mph 24.1 mph 72 % 0.0 in 0.0 W/m2 CLR
23:19 6.1 °F 1.6 °F 1015.8 in NW 25.9 mph 25.9 mph 73 % 0.0 in 0.0 W/m2 CLR
23:20 6.1 °F 1.6 °F 1015.8 in NNW 25.9 mph 25.9 mph 73 % 0.0 in 0.0 W/m2 CLR
23:21 6.1 °F 1.6 °F 1015.8 in NNW 31.5 mph 31.5 mph 73 % 0.0 in 0.0 W/m2 CLR
23:26 6.1 °F 1.6 °F 1015.8 in NNW 27.8 mph 27.8 mph 73 % 0.0 in 0.0 W/m2 CLR
23:31 6.1 °F 1.6 °F 1015.8 in North 20.4 mph 20.4 mph 73 % 0.0 in 0.0 W/m2 CLR
23:33 6.1 °F 1.8 °F 1015.8 in NW 33.3 mph 33.3 mph 74 % 0.0 in 0.0 W/m2 CLR
23:37 6.1 °F 1.8 °F 1016.1 in NNW 35.2 mph 35.2 mph 74 % 0.0 in 0.0 W/m2 CLR
23:42 6.1 °F 1.8 °F 1016.1 in NNW 37.0 mph 37.0 mph 74 % 0.0 in 0.0 W/m2 CLR
23:43 6.1 °F 1.8 °F 1016.1 in NW 35.2 mph 35.2 mph 74 % 0.0 in 0.0 W/m2 CLR
23:49 6.1 °F 1.6 °F 1016.1 in NW 27.8 mph 27.8 mph 73 % 0.0 in 0.0 W/m2 CLR
23:50 6.1 °F 1.6 °F 1016.1 in NW 25.9 mph 25.9 mph 73 % 0.0 in 0.0 W/m2 CLR
23:55 6.1 °F 1.8 °F 1016.1 in NNW 33.8 mph 33.8 mph 74 % 0.0 in 0.0 W/m2 CLR
23:56 6.1 °F 1.8 °F 1016.1 in WNW 24.1 mph 25.3 mph 74 % 0.0 in 0.0 W/m2 CLR
Lo Temps de Massalio
Compliments of Weather Underground - 1.25 mb